sensor_id;sensor_type;location;lat;lon;timestamp;P1;durP1;ratioP1;P2;durP2;ratioP2
26578;SDS011;14227;47.674;19.320;2023-06-24T00:02:13;29.95;;;18.40;;
26578;SDS011;14227;47.674;19.320;2023-06-24T00:04:38;29.42;;;17.65;;
26578;SDS011;14227;47.674;19.320;2023-06-24T00:07:04;25.67;;;17.85;;
26578;SDS011;14227;47.674;19.320;2023-06-24T00:09:31;25.92;;;16.23;;
26578;SDS011;14227;47.674;19.320;2023-06-24T00:11:57;32.72;;;18.40;;
26578;SDS011;14227;47.674;19.320;2023-06-24T00:14:24;42.97;;;21.90;;
26578;SDS011;14227;47.674;19.320;2023-06-24T00:16:53;32.50;;;20.80;;
26578;SDS011;14227;47.674;19.320;2023-06-24T00:19:21;37.17;;;22.17;;
26578;SDS011;14227;47.674;19.320;2023-06-24T00:21:49;27.75;;;18.67;;
26578;SDS011;14227;47.674;19.320;2023-06-24T00:24:18;31.02;;;18.92;;
26578;SDS011;14227;47.674;19.320;2023-06-24T00:26:48;34.00;;;19.95;;
26578;SDS011;14227;47.674;19.320;2023-06-24T00:29:13;34.70;;;21.25;;
26578;SDS011;14227;47.674;19.320;2023-06-24T00:31:40;42.60;;;23.48;;
26578;SDS011;14227;47.674;19.320;2023-06-24T00:34:06;34.42;;;20.95;;
26578;SDS011;14227;47.674;19.320;2023-06-24T00:36:32;33.80;;;22.25;;
26578;SDS011;14227;47.674;19.320;2023-06-24T00:38:57;32.25;;;21.17;;
26578;SDS011;14227;47.674;19.320;2023-06-24T00:41:28;30.67;;;20.58;;
26578;SDS011;14227;47.674;19.320;2023-06-24T00:43:57;34.20;;;20.33;;
26578;SDS011;14227;47.674;19.320;2023-06-24T00:46:27;35.45;;;22.15;;
26578;SDS011;14227;47.674;19.320;2023-06-24T00:48:56;39.40;;;24.80;;
26578;SDS011;14227;47.674;19.320;2023-06-24T00:51:23;34.95;;;21.80;;
26578;SDS011;14227;47.674;19.320;2023-06-24T00:53:56;36.78;;;22.00;;
26578;SDS011;14227;47.674;19.320;2023-06-24T00:56:25;34.50;;;22.60;;
26578;SDS011;14227;47.674;19.320;2023-06-24T00:59:00;31.50;;;19.15;;
26578;SDS011;14227;47.674;19.320;2023-06-24T01:01:32;30.80;;;20.20;;
26578;SDS011;14227;47.674;19.320;2023-06-24T01:04:00;31.42;;;18.98;;
26578;SDS011;14227;47.674;19.320;2023-06-24T01:06:30;43.35;;;20.50;;
26578;SDS011;14227;47.674;19.320;2023-06-24T01:08:59;31.42;;;19.90;;
26578;SDS011;14227;47.674;19.320;2023-06-24T01:11:27;30.83;;;18.75;;
26578;SDS011;14227;47.674;19.320;2023-06-24T01:13:54;36.33;;;18.67;;
26578;SDS011;14227;47.674;19.320;2023-06-24T01:19:24;25.40;;;17.17;;
26578;SDS011;14227;47.674;19.320;2023-06-24T01:22:30;25.80;;;16.88;;
26578;SDS011;14227;47.674;19.320;2023-06-24T01:37:00;22.45;;;15.35;;
26578;SDS011;14227;47.674;19.320;2023-06-24T01:42:50;22.92;;;14.85;;
26578;SDS011;14227;47.674;19.320;2023-06-24T01:45:23;28.08;;;17.17;;
26578;SDS011;14227;47.674;19.320;2023-06-24T01:47:59;29.75;;;17.52;;
26578;SDS011;14227;47.674;19.320;2023-06-24T01:50:27;32.55;;;19.23;;
26578;SDS011;14227;47.674;19.320;2023-06-24T01:52:57;26.30;;;18.08;;
26578;SDS011;14227;47.674;19.320;2023-06-24T01:55:23;29.85;;;17.88;;
26578;SDS011;14227;47.674;19.320;2023-06-24T01:57:50;27.95;;;17.25;;
26578;SDS011;14227;47.674;19.320;2023-06-24T02:00:17;23.48;;;16.42;;
26578;SDS011;14227;47.674;19.320;2023-06-24T02:02:43;29.33;;;17.58;;
26578;SDS011;14227;47.674;19.320;2023-06-24T02:05:11;32.03;;;18.15;;
26578;SDS011;14227;47.674;19.320;2023-06-24T02:07:37;27.17;;;16.92;;
26578;SDS011;14227;47.674;19.320;2023-06-24T02:10:06;24.17;;;16.35;;
26578;SDS011;14227;47.674;19.320;2023-06-24T02:12:34;26.05;;;16.80;;
26578;SDS011;14227;47.674;19.320;2023-06-24T02:15:01;26.17;;;16.50;;
26578;SDS011;14227;47.674;19.320;2023-06-24T02:17:29;24.48;;;14.90;;
26578;SDS011;14227;47.674;19.320;2023-06-24T02:19:55;25.20;;;16.20;;
26578;SDS011;14227;47.674;19.320;2023-06-24T02:22:22;30.17;;;17.95;;
26578;SDS011;14227;47.674;19.320;2023-06-24T02:24:49;24.30;;;15.35;;
26578;SDS011;14227;47.674;19.320;2023-06-24T02:27:15;19.20;;;13.55;;
26578;SDS011;14227;47.674;19.320;2023-06-24T02:29:42;23.60;;;14.60;;
26578;SDS011;14227;47.674;19.320;2023-06-24T02:32:08;20.90;;;12.75;;
26578;SDS011;14227;47.674;19.320;2023-06-24T02:34:35;25.00;;;13.38;;
26578;SDS011;14227;47.674;19.320;2023-06-24T02:37:00;18.13;;;11.75;;
26578;SDS011;14227;47.674;19.320;2023-06-24T02:39:26;18.73;;;12.63;;
26578;SDS011;14227;47.674;19.320;2023-06-24T02:41:52;21.42;;;13.18;;
26578;SDS011;14227;47.674;19.320;2023-06-24T02:44:18;17.38;;;12.38;;
26578;SDS011;14227;47.674;19.320;2023-06-24T02:46:44;17.48;;;11.23;;
26578;SDS011;14227;47.674;19.320;2023-06-24T02:49:13;20.38;;;12.52;;
26578;SDS011;14227;47.674;19.320;2023-06-24T02:51:41;20.67;;;12.40;;
26578;SDS011;14227;47.674;19.320;2023-06-24T02:54:07;20.08;;;11.00;;
26578;SDS011;14227;47.674;19.320;2023-06-24T02:56:34;23.35;;;13.60;;
26578;SDS011;14227;47.674;19.320;2023-06-24T02:59:06;25.50;;;12.93;;
26578;SDS011;14227;47.674;19.320;2023-06-24T03:01:33;21.48;;;11.85;;
26578;SDS011;14227;47.674;19.320;2023-06-24T03:04:03;20.33;;;11.05;;
26578;SDS011;14227;47.674;19.320;2023-06-24T03:06:30;20.30;;;11.52;;
26578;SDS011;14227;47.674;19.320;2023-06-24T03:08:56;14.35;;;11.00;;
26578;SDS011;14227;47.674;19.320;2023-06-24T03:11:23;17.63;;;11.45;;
26578;SDS011;14227;47.674;19.320;2023-06-24T03:13:50;16.83;;;10.27;;
26578;SDS011;14227;47.674;19.320;2023-06-24T03:16:17;19.52;;;10.10;;
26578;SDS011;14227;47.674;19.320;2023-06-24T03:18:42;14.07;;;10.13;;
26578;SDS011;14227;47.674;19.320;2023-06-24T03:21:08;25.17;;;11.80;;
26578;SDS011;14227;47.674;19.320;2023-06-24T03:23:34;14.63;;;10.75;;
26578;SDS011;14227;47.674;19.320;2023-06-24T03:26:00;16.77;;;9.63;;
26578;SDS011;14227;47.674;19.320;2023-06-24T03:28:27;17.42;;;10.07;;
26578;SDS011;14227;47.674;19.320;2023-06-24T03:30:59;17.60;;;9.73;;
26578;SDS011;14227;47.674;19.320;2023-06-24T03:33:26;21.20;;;8.70;;
26578;SDS011;14227;47.674;19.320;2023-06-24T03:35:52;13.48;;;8.30;;
26578;SDS011;14227;47.674;19.320;2023-06-24T03:38:19;16.05;;;8.73;;
26578;SDS011;14227;47.674;19.320;2023-06-24T03:40:46;12.68;;;8.32;;
26578;SDS011;14227;47.674;19.320;2023-06-24T03:43:12;15.13;;;7.80;;
26578;SDS011;14227;47.674;19.320;2023-06-24T03:45:37;10.43;;;7.47;;
26578;SDS011;14227;47.674;19.320;2023-06-24T03:48:03;11.68;;;7.18;;
26578;SDS011;14227;47.674;19.320;2023-06-24T03:50:29;11.45;;;6.72;;
26578;SDS011;14227;47.674;19.320;2023-06-24T03:52:58;10.32;;;6.70;;
26578;SDS011;14227;47.674;19.320;2023-06-24T03:55:24;14.07;;;6.55;;
26578;SDS011;14227;47.674;19.320;2023-06-24T03:57:50;8.93;;;5.72;;
26578;SDS011;14227;47.674;19.320;2023-06-24T04:00:17;9.27;;;6.13;;
26578;SDS011;14227;47.674;19.320;2023-06-24T04:02:45;11.05;;;6.07;;
26578;SDS011;14227;47.674;19.320;2023-06-24T04:05:12;9.93;;;5.05;;
26578;SDS011;14227;47.674;19.320;2023-06-24T04:07:38;8.55;;;5.63;;
26578;SDS011;14227;47.674;19.320;2023-06-24T04:10:12;8.82;;;6.57;;
26578;SDS011;14227;47.674;19.320;2023-06-24T04:12:38;9.25;;;5.07;;
26578;SDS011;14227;47.674;19.320;2023-06-24T04:15:05;8.48;;;5.05;;
26578;SDS011;14227;47.674;19.320;2023-06-24T04:17:32;9.02;;;4.80;;
26578;SDS011;14227;47.674;19.320;2023-06-24T04:19:58;6.90;;;4.70;;
26578;SDS011;14227;47.674;19.320;2023-06-24T04:22:24;18.85;;;5.10;;
26578;SDS011;14227;47.674;19.320;2023-06-24T04:24:50;5.55;;;4.35;;
26578;SDS011;14227;47.674;19.320;2023-06-24T04:27:16;6.28;;;4.40;;
26578;SDS011;14227;47.674;19.320;2023-06-24T04:29:42;12.23;;;4.22;;
26578;SDS011;14227;47.674;19.320;2023-06-24T04:32:08;10.55;;;4.63;;
26578;SDS011;14227;47.674;19.320;2023-06-24T04:34:33;8.75;;;4.13;;
26578;SDS011;14227;47.674;19.320;2023-06-24T04:36:59;9.70;;;4.63;;
26578;SDS011;14227;47.674;19.320;2023-06-24T04:39:25;5.60;;;3.40;;
26578;SDS011;14227;47.674;19.320;2023-06-24T04:41:50;9.40;;;3.58;;
26578;SDS011;14227;47.674;19.320;2023-06-24T04:44:16;6.80;;;3.35;;
26578;SDS011;14227;47.674;19.320;2023-06-24T04:46:42;6.00;;;3.83;;
26578;SDS011;14227;47.674;19.320;2023-06-24T04:49:07;6.25;;;3.05;;
26578;SDS011;14227;47.674;19.320;2023-06-24T04:51:33;8.30;;;3.92;;
26578;SDS011;14227;47.674;19.320;2023-06-24T04:53:59;7.15;;;3.45;;
26578;SDS011;14227;47.674;19.320;2023-06-24T04:56:25;7.75;;;3.25;;
26578;SDS011;14227;47.674;19.320;2023-06-24T04:58:53;6.32;;;3.47;;
26578;SDS011;14227;47.674;19.320;2023-06-24T05:01:18;6.18;;;3.10;;
26578;SDS011;14227;47.674;19.320;2023-06-24T05:03:44;7.05;;;3.30;;
26578;SDS011;14227;47.674;19.320;2023-06-24T05:06:09;8.32;;;3.08;;
26578;SDS011;14227;47.674;19.320;2023-06-24T05:08:35;6.03;;;3.08;;
26578;SDS011;14227;47.674;19.320;2023-06-24T05:11:01;5.05;;;3.20;;
26578;SDS011;14227;47.674;19.320;2023-06-24T05:13:27;6.35;;;3.13;;
26578;SDS011;14227;47.674;19.320;2023-06-24T05:15:53;5.35;;;2.92;;
26578;SDS011;14227;47.674;19.320;2023-06-24T05:18:18;4.65;;;2.78;;
26578;SDS011;14227;47.674;19.320;2023-06-24T05:20:44;5.28;;;2.80;;
26578;SDS011;14227;47.674;19.320;2023-06-24T05:23:10;3.40;;;2.78;;
26578;SDS011;14227;47.674;19.320;2023-06-24T05:25:35;6.00;;;2.90;;
26578;SDS011;14227;47.674;19.320;2023-06-24T05:28:01;10.95;;;3.28;;
26578;SDS011;14227;47.674;19.320;2023-06-24T05:30:27;8.60;;;2.92;;
26578;SDS011;14227;47.674;19.320;2023-06-24T05:32:53;5.32;;;2.70;;
26578;SDS011;14227;47.674;19.320;2023-06-24T05:35:19;5.93;;;3.00;;
26578;SDS011;14227;47.674;19.320;2023-06-24T05:37:44;4.80;;;2.97;;
26578;SDS011;14227;47.674;19.320;2023-06-24T05:40:10;4.55;;;2.88;;
26578;SDS011;14227;47.674;19.320;2023-06-24T05:42:37;8.57;;;3.33;;
26578;SDS011;14227;47.674;19.320;2023-06-24T05:45:03;8.15;;;2.38;;
26578;SDS011;14227;47.674;19.320;2023-06-24T05:47:31;3.63;;;2.47;;
26578;SDS011;14227;47.674;19.320;2023-06-24T05:49:57;6.70;;;2.50;;
26578;SDS011;14227;47.674;19.320;2023-06-24T05:52:23;4.55;;;2.53;;
26578;SDS011;14227;47.674;19.320;2023-06-24T05:54:49;7.38;;;2.00;;
26578;SDS011;14227;47.674;19.320;2023-06-24T05:57:14;7.82;;;2.40;;
26578;SDS011;14227;47.674;19.320;2023-06-24T05:59:40;3.70;;;2.13;;
26578;SDS011;14227;47.674;19.320;2023-06-24T06:02:06;4.85;;;1.95;;
26578;SDS011;14227;47.674;19.320;2023-06-24T06:04:32;6.15;;;2.00;;
26578;SDS011;14227;47.674;19.320;2023-06-24T06:06:58;4.47;;;2.20;;
26578;SDS011;14227;47.674;19.320;2023-06-24T06:09:23;3.35;;;1.77;;
26578;SDS011;14227;47.674;19.320;2023-06-24T06:11:49;4.57;;;2.28;;
26578;SDS011;14227;47.674;19.320;2023-06-24T06:14:15;6.85;;;1.90;;
26578;SDS011;14227;47.674;19.320;2023-06-24T06:16:40;4.10;;;2.05;;
26578;SDS011;14227;47.674;19.320;2023-06-24T06:19:06;1.95;;;1.60;;
26578;SDS011;14227;47.674;19.320;2023-06-24T06:21:32;3.00;;;1.98;;
26578;SDS011;14227;47.674;19.320;2023-06-24T06:23:57;7.68;;;2.35;;
26578;SDS011;14227;47.674;19.320;2023-06-24T06:26:23;3.53;;;1.70;;
26578;SDS011;14227;47.674;19.320;2023-06-24T06:28:49;3.50;;;1.35;;
26578;SDS011;14227;47.674;19.320;2023-06-24T06:31:15;6.38;;;1.63;;
26578;SDS011;14227;47.674;19.320;2023-06-24T06:33:41;3.05;;;1.40;;
26578;SDS011;14227;47.674;19.320;2023-06-24T06:36:08;2.03;;;1.30;;
26578;SDS011;14227;47.674;19.320;2023-06-24T06:38:34;3.95;;;1.75;;
26578;SDS011;14227;47.674;19.320;2023-06-24T06:41:00;5.40;;;1.88;;
26578;SDS011;14227;47.674;19.320;2023-06-24T06:43:26;2.25;;;1.67;;
26578;SDS011;14227;47.674;19.320;2023-06-24T06:45:51;5.85;;;1.60;;
26578;SDS011;14227;47.674;19.320;2023-06-24T06:48:17;3.58;;;1.35;;
26578;SDS011;14227;47.674;19.320;2023-06-24T06:50:43;4.85;;;1.50;;
26578;SDS011;14227;47.674;19.320;2023-06-24T06:53:10;2.80;;;1.60;;
26578;SDS011;14227;47.674;19.320;2023-06-24T06:55:36;2.63;;;1.65;;
26578;SDS011;14227;47.674;19.320;2023-06-24T06:58:02;1.50;;;1.40;;
26578;SDS011;14227;47.674;19.320;2023-06-24T07:00:28;1.90;;;1.35;;
26578;SDS011;14227;47.674;19.320;2023-06-24T07:02:54;3.90;;;1.40;;
26578;SDS011;14227;47.674;19.320;2023-06-24T07:05:19;2.55;;;1.30;;
26578;SDS011;14227;47.674;19.320;2023-06-24T07:07:46;4.53;;;1.30;;
26578;SDS011;14227;47.674;19.320;2023-06-24T07:10:12;3.00;;;1.30;;
26578;SDS011;14227;47.674;19.320;2023-06-24T07:12:38;8.43;;;1.33;;
26578;SDS011;14227;47.674;19.320;2023-06-24T07:15:04;2.05;;;1.52;;
26578;SDS011;14227;47.674;19.320;2023-06-24T07:17:30;3.70;;;1.30;;
26578;SDS011;14227;47.674;19.320;2023-06-24T07:19:56;3.63;;;1.27;;
26578;SDS011;14227;47.674;19.320;2023-06-24T07:22:22;2.25;;;1.20;;
26578;SDS011;14227;47.674;19.320;2023-06-24T07:24:47;1.65;;;1.20;;
26578;SDS011;14227;47.674;19.320;2023-06-24T07:27:13;3.08;;;1.20;;
26578;SDS011;14227;47.674;19.320;2023-06-24T07:29:39;3.90;;;1.50;;
26578;SDS011;14227;47.674;19.320;2023-06-24T07:32:06;4.15;;;1.33;;
26578;SDS011;14227;47.674;19.320;2023-06-24T07:34:32;5.60;;;3.30;;
26578;SDS011;14227;47.674;19.320;2023-06-24T07:36:58;3.90;;;1.40;;
26578;SDS011;14227;47.674;19.320;2023-06-24T07:39:24;4.20;;;1.70;;
26578;SDS011;14227;47.674;19.320;2023-06-24T07:41:50;4.30;;;1.20;;
26578;SDS011;14227;47.674;19.320;2023-06-24T07:44:15;1.20;;;0.90;;
26578;SDS011;14227;47.674;19.320;2023-06-24T07:46:46;4.88;;;1.20;;
26578;SDS011;14227;47.674;19.320;2023-06-24T07:49:13;4.40;;;1.20;;
26578;SDS011;14227;47.674;19.320;2023-06-24T07:51:48;5.03;;;1.35;;
26578;SDS011;14227;47.674;19.320;2023-06-24T07:54:14;2.13;;;1.48;;
26578;SDS011;14227;47.674;19.320;2023-06-24T07:56:41;4.63;;;1.10;;
26578;SDS011;14227;47.674;19.320;2023-06-24T07:59:07;2.38;;;1.38;;
26578;SDS011;14227;47.674;19.320;2023-06-24T08:01:33;5.10;;;1.20;;
26578;SDS011;14227;47.674;19.320;2023-06-24T08:03:58;2.38;;;1.27;;
26578;SDS011;14227;47.674;19.320;2023-06-24T08:06:24;1.52;;;1.05;;
26578;SDS011;14227;47.674;19.320;2023-06-24T08:08:51;2.53;;;1.10;;
26578;SDS011;14227;47.674;19.320;2023-06-24T08:11:16;2.92;;;1.00;;
26578;SDS011;14227;47.674;19.320;2023-06-24T08:13:42;5.82;;;1.55;;
26578;SDS011;14227;47.674;19.320;2023-06-24T08:16:08;2.80;;;1.20;;
26578;SDS011;14227;47.674;19.320;2023-06-24T08:18:36;3.13;;;1.10;;
26578;SDS011;14227;47.674;19.320;2023-06-24T08:21:02;1.13;;;1.00;;
26578;SDS011;14227;47.674;19.320;2023-06-24T08:23:28;6.88;;;1.20;;
26578;SDS011;14227;47.674;19.320;2023-06-24T08:25:53;1.40;;;0.95;;
26578;SDS011;14227;47.674;19.320;2023-06-24T08:28:19;3.67;;;1.33;;
26578;SDS011;14227;47.674;19.320;2023-06-24T08:30:48;1.70;;;1.00;;
26578;SDS011;14227;47.674;19.320;2023-06-24T08:33:13;2.00;;;1.00;;
26578;SDS011;14227;47.674;19.320;2023-06-24T08:35:39;4.20;;;1.13;;
26578;SDS011;14227;47.674;19.320;2023-06-24T08:38:05;1.25;;;0.93;;
26578;SDS011;14227;47.674;19.320;2023-06-24T08:40:30;6.85;;;1.20;;
26578;SDS011;14227;47.674;19.320;2023-06-24T08:42:56;5.53;;;1.00;;
26578;SDS011;14227;47.674;19.320;2023-06-24T08:45:23;1.80;;;1.20;;
26578;SDS011;14227;47.674;19.320;2023-06-24T08:47:49;2.25;;;1.23;;
26578;SDS011;14227;47.674;19.320;2023-06-24T08:50:17;3.40;;;1.30;;
26578;SDS011;14227;47.674;19.320;2023-06-24T08:52:51;2.45;;;1.10;;
26578;SDS011;14227;47.674;19.320;2023-06-24T08:55:19;4.82;;;1.30;;
26578;SDS011;14227;47.674;19.320;2023-06-24T08:57:50;1.92;;;1.20;;
26578;SDS011;14227;47.674;19.320;2023-06-24T09:00:16;2.95;;;1.20;;
26578;SDS011;14227;47.674;19.320;2023-06-24T09:02:42;1.20;;;0.90;;
26578;SDS011;14227;47.674;19.320;2023-06-24T09:05:15;1.48;;;1.00;;
26578;SDS011;14227;47.674;19.320;2023-06-24T09:07:44;2.90;;;1.20;;
26578;SDS011;14227;47.674;19.320;2023-06-24T09:10:28;5.72;;;1.17;;
26578;SDS011;14227;47.674;19.320;2023-06-24T09:13:00;6.18;;;1.25;;
26578;SDS011;14227;47.674;19.320;2023-06-24T09:15:32;1.60;;;1.20;;
26578;SDS011;14227;47.674;19.320;2023-06-24T09:18:00;2.65;;;1.15;;
26578;SDS011;14227;47.674;19.320;2023-06-24T09:20:35;3.85;;;1.30;;
26578;SDS011;14227;47.674;19.320;2023-06-24T09:23:06;1.85;;;1.27;;
26578;SDS011;14227;47.674;19.320;2023-06-24T09:25:31;3.05;;;1.17;;
26578;SDS011;14227;47.674;19.320;2023-06-24T09:27:58;4.97;;;1.40;;
26578;SDS011;14227;47.674;19.320;2023-06-24T09:30:25;1.30;;;1.20;;
26578;SDS011;14227;47.674;19.320;2023-06-24T09:32:52;1.30;;;1.20;;
26578;SDS011;14227;47.674;19.320;2023-06-24T09:35:19;3.63;;;1.10;;
26578;SDS011;14227;47.674;19.320;2023-06-24T09:37:49;2.38;;;1.50;;
26578;SDS011;14227;47.674;19.320;2023-06-24T09:40:20;1.65;;;1.20;;
26578;SDS011;14227;47.674;19.320;2023-06-24T09:45:28;1.75;;;1.30;;
26578;SDS011;14227;47.674;19.320;2023-06-24T09:47:57;2.92;;;1.40;;
26578;SDS011;14227;47.674;19.320;2023-06-24T09:50:23;2.80;;;1.20;;
26578;SDS011;14227;47.674;19.320;2023-06-24T09:52:49;3.10;;;1.67;;
26578;SDS011;14227;47.674;19.320;2023-06-24T09:55:16;3.83;;;1.40;;
26578;SDS011;14227;47.674;19.320;2023-06-24T09:57:46;5.80;;;1.50;;
26578;SDS011;14227;47.674;19.320;2023-06-24T10:00:16;7.28;;;1.48;;
26578;SDS011;14227;47.674;19.320;2023-06-24T10:02:44;2.08;;;1.60;;
26578;SDS011;14227;47.674;19.320;2023-06-24T10:05:11;5.07;;;1.52;;
26578;SDS011;14227;47.674;19.320;2023-06-24T10:07:40;2.70;;;1.40;;
26578;SDS011;14227;47.674;19.320;2023-06-24T10:10:07;3.78;;;1.40;;
26578;SDS011;14227;47.674;19.320;2023-06-24T10:12:34;2.35;;;1.40;;
26578;SDS011;14227;47.674;19.320;2023-06-24T10:15:01;3.80;;;1.75;;
26578;SDS011;14227;47.674;19.320;2023-06-24T10:17:27;4.75;;;1.55;;
26578;SDS011;14227;47.674;19.320;2023-06-24T10:19:54;2.42;;;1.25;;
26578;SDS011;14227;47.674;19.320;2023-06-24T10:22:23;3.17;;;1.20;;
26578;SDS011;14227;47.674;19.320;2023-06-24T10:24:51;5.45;;;2.35;;
26578;SDS011;14227;47.674;19.320;2023-06-24T10:27:18;2.60;;;1.42;;
26578;SDS011;14227;47.674;19.320;2023-06-24T10:29:53;4.50;;;1.38;;
26578;SDS011;14227;47.674;19.320;2023-06-24T10:32:23;2.17;;;1.17;;
26578;SDS011;14227;47.674;19.320;2023-06-24T10:34:55;1.50;;;1.25;;
26578;SDS011;14227;47.674;19.320;2023-06-24T10:37:37;5.13;;;1.73;;
26578;SDS011;14227;47.674;19.320;2023-06-24T10:40:03;4.22;;;1.27;;
26578;SDS011;14227;47.674;19.320;2023-06-24T10:45:32;2.50;;;1.00;;
26578;SDS011;14227;47.674;19.320;2023-06-24T10:48:03;2.45;;;1.40;;
26578;SDS011;14227;47.674;19.320;2023-06-24T10:50:30;3.17;;;1.30;;
26578;SDS011;14227;47.674;19.320;2023-06-24T10:52:56;2.85;;;1.25;;
26578;SDS011;14227;47.674;19.320;2023-06-24T10:57:52;1.45;;;1.10;;
26578;SDS011;14227;47.674;19.320;2023-06-24T11:00:19;3.22;;;1.25;;
26578;SDS011;14227;47.674;19.320;2023-06-24T11:02:45;1.70;;;1.13;;
26578;SDS011;14227;47.674;19.320;2023-06-24T11:05:15;3.92;;;1.10;;
26578;SDS011;14227;47.674;19.320;2023-06-24T11:07:40;5.75;;;1.40;;
26578;SDS011;14227;47.674;19.320;2023-06-24T11:10:07;3.60;;;1.30;;
26578;SDS011;14227;47.674;19.320;2023-06-24T11:12:35;3.22;;;1.30;;
26578;SDS011;14227;47.674;19.320;2023-06-24T11:15:05;1.15;;;1.02;;
26578;SDS011;14227;47.674;19.320;2023-06-24T11:20:08;1.73;;;1.20;;
26578;SDS011;14227;47.674;19.320;2023-06-24T11:22:34;1.42;;;1.05;;
26578;SDS011;14227;47.674;19.320;2023-06-24T11:25:00;1.90;;;1.20;;
26578;SDS011;14227;47.674;19.320;2023-06-24T11:27:26;1.33;;;1.02;;
26578;SDS011;14227;47.674;19.320;2023-06-24T11:29:53;1.30;;;1.10;;
26578;SDS011;14227;47.674;19.320;2023-06-24T11:32:20;8.90;;;1.38;;
26578;SDS011;14227;47.674;19.320;2023-06-24T11:34:47;2.63;;;1.00;;
26578;SDS011;14227;47.674;19.320;2023-06-24T11:37:14;3.45;;;1.30;;
26578;SDS011;14227;47.674;19.320;2023-06-24T11:39:41;2.58;;;1.30;;
26578;SDS011;14227;47.674;19.320;2023-06-24T11:42:08;1.40;;;1.10;;
26578;SDS011;14227;47.674;19.320;2023-06-24T11:44:34;2.40;;;1.20;;
26578;SDS011;14227;47.674;19.320;2023-06-24T11:47:05;3.42;;;1.40;;
26578;SDS011;14227;47.674;19.320;2023-06-24T11:49:32;1.48;;;1.05;;
26578;SDS011;14227;47.674;19.320;2023-06-24T11:52:12;1.83;;;1.40;;
26578;SDS011;14227;47.674;19.320;2023-06-24T11:54:40;5.38;;;1.17;;
26578;SDS011;14227;47.674;19.320;2023-06-24T11:57:07;3.63;;;1.30;;
26578;SDS011;14227;47.674;19.320;2023-06-24T11:59:33;2.45;;;1.35;;
26578;SDS011;14227;47.674;19.320;2023-06-24T12:01:59;4.55;;;1.20;;
26578;SDS011;14227;47.674;19.320;2023-06-24T12:04:29;3.30;;;0.90;;
26578;SDS011;14227;47.674;19.320;2023-06-24T12:06:55;4.43;;;1.20;;
26578;SDS011;14227;47.674;19.320;2023-06-24T12:09:21;1.52;;;1.30;;
26578;SDS011;14227;47.674;19.320;2023-06-24T12:11:47;4.07;;;1.20;;
26578;SDS011;14227;47.674;19.320;2023-06-24T12:14:13;1.30;;;1.13;;
26578;SDS011;14227;47.674;19.320;2023-06-24T12:16:39;1.42;;;1.02;;
26578;SDS011;14227;47.674;19.320;2023-06-24T12:19:08;1.98;;;1.00;;
26578;SDS011;14227;47.674;19.320;2023-06-24T12:21:34;1.20;;;1.10;;
26578;SDS011;14227;47.674;19.320;2023-06-24T12:24:00;5.20;;;1.13;;
26578;SDS011;14227;47.674;19.320;2023-06-24T12:26:27;5.32;;;1.30;;
26578;SDS011;14227;47.674;19.320;2023-06-24T12:28:55;1.45;;;1.10;;
26578;SDS011;14227;47.674;19.320;2023-06-24T12:31:22;2.13;;;1.15;;
26578;SDS011;14227;47.674;19.320;2023-06-24T12:33:51;2.53;;;1.30;;
26578;SDS011;14227;47.674;19.320;2023-06-24T12:36:17;1.73;;;1.30;;
26578;SDS011;14227;47.674;19.320;2023-06-24T12:38:44;1.23;;;0.98;;
26578;SDS011;14227;47.674;19.320;2023-06-24T12:41:09;3.30;;;1.05;;
26578;SDS011;14227;47.674;19.320;2023-06-24T12:43:35;6.63;;;1.13;;
26578;SDS011;14227;47.674;19.320;2023-06-24T12:46:01;1.65;;;1.05;;
26578;SDS011;14227;47.674;19.320;2023-06-24T12:48:26;7.50;;;1.30;;
26578;SDS011;14227;47.674;19.320;2023-06-24T12:50:52;4.65;;;1.00;;
26578;SDS011;14227;47.674;19.320;2023-06-24T12:53:18;2.45;;;1.17;;
26578;SDS011;14227;47.674;19.320;2023-06-24T12:55:44;3.05;;;1.17;;
26578;SDS011;14227;47.674;19.320;2023-06-24T12:58:10;2.22;;;1.30;;
26578;SDS011;14227;47.674;19.320;2023-06-24T13:00:35;2.35;;;0.98;;
26578;SDS011;14227;47.674;19.320;2023-06-24T13:03:01;1.98;;;1.40;;
26578;SDS011;14227;47.674;19.320;2023-06-24T13:05:27;3.65;;;1.20;;
26578;SDS011;14227;47.674;19.320;2023-06-24T13:07:53;2.03;;;1.17;;
26578;SDS011;14227;47.674;19.320;2023-06-24T13:10:20;3.05;;;1.10;;
26578;SDS011;14227;47.674;19.320;2023-06-24T13:12:45;1.83;;;1.08;;
26578;SDS011;14227;47.674;19.320;2023-06-24T13:15:11;1.70;;;1.17;;
26578;SDS011;14227;47.674;19.320;2023-06-24T13:17:37;3.30;;;1.20;;
26578;SDS011;14227;47.674;19.320;2023-06-24T13:20:03;2.65;;;1.20;;
26578;SDS011;14227;47.674;19.320;2023-06-24T13:22:29;4.88;;;1.63;;
26578;SDS011;14227;47.674;19.320;2023-06-24T13:24:56;4.47;;;1.40;;
26578;SDS011;14227;47.674;19.320;2023-06-24T13:27:22;3.67;;;1.25;;
26578;SDS011;14227;47.674;19.320;2023-06-24T13:29:47;3.28;;;1.20;;
26578;SDS011;14227;47.674;19.320;2023-06-24T13:32:13;4.22;;;1.15;;
26578;SDS011;14227;47.674;19.320;2023-06-24T13:34:39;1.55;;;1.02;;
26578;SDS011;14227;47.674;19.320;2023-06-24T13:37:05;1.25;;;1.05;;
26578;SDS011;14227;47.674;19.320;2023-06-24T13:39:31;2.25;;;1.20;;
26578;SDS011;14227;47.674;19.320;2023-06-24T13:41:57;0.95;;;0.95;;
26578;SDS011;14227;47.674;19.320;2023-06-24T13:44:23;2.35;;;1.30;;
26578;SDS011;14227;47.674;19.320;2023-06-24T13:46:49;2.28;;;1.23;;
26578;SDS011;14227;47.674;19.320;2023-06-24T13:49:15;2.83;;;1.10;;
26578;SDS011;14227;47.674;19.320;2023-06-24T13:51:41;4.55;;;1.20;;
26578;SDS011;14227;47.674;19.320;2023-06-24T13:54:07;1.38;;;1.15;;
26578;SDS011;14227;47.674;19.320;2023-06-24T13:56:33;6.63;;;1.00;;
26578;SDS011;14227;47.674;19.320;2023-06-24T13:58:59;0.80;;;0.80;;
26578;SDS011;14227;47.674;19.320;2023-06-24T14:01:25;3.50;;;1.20;;
26578;SDS011;14227;47.674;19.320;2023-06-24T14:03:53;4.68;;;1.30;;
26578;SDS011;14227;47.674;19.320;2023-06-24T14:06:20;2.47;;;1.40;;
26578;SDS011;14227;47.674;19.320;2023-06-24T14:08:47;4.82;;;1.55;;
26578;SDS011;14227;47.674;19.320;2023-06-24T14:11:14;7.90;;;1.42;;
26578;SDS011;14227;47.674;19.320;2023-06-24T14:13:41;2.92;;;1.00;;
26578;SDS011;14227;47.674;19.320;2023-06-24T14:16:07;5.25;;;1.13;;
26578;SDS011;14227;47.674;19.320;2023-06-24T14:18:34;3.92;;;1.13;;
26578;SDS011;14227;47.674;19.320;2023-06-24T14:21:00;2.00;;;1.65;;
26578;SDS011;14227;47.674;19.320;2023-06-24T14:23:30;3.40;;;1.40;;
26578;SDS011;14227;47.674;19.320;2023-06-24T14:25:57;2.28;;;1.30;;
26578;SDS011;14227;47.674;19.320;2023-06-24T14:28:24;6.20;;;1.40;;
26578;SDS011;14227;47.674;19.320;2023-06-24T14:30:50;4.60;;;1.65;;
26578;SDS011;14227;47.674;19.320;2023-06-24T14:33:16;3.67;;;1.25;;
26578;SDS011;14227;47.674;19.320;2023-06-24T14:35:43;1.52;;;1.35;;
26578;SDS011;14227;47.674;19.320;2023-06-24T14:38:08;1.40;;;1.30;;
26578;SDS011;14227;47.674;19.320;2023-06-24T14:40:34;1.60;;;1.30;;
26578;SDS011;14227;47.674;19.320;2023-06-24T14:43:00;5.63;;;1.73;;
26578;SDS011;14227;47.674;19.320;2023-06-24T14:45:26;3.42;;;2.42;;
26578;SDS011;14227;47.674;19.320;2023-06-24T14:47:52;4.60;;;1.77;;
26578;SDS011;14227;47.674;19.320;2023-06-24T14:50:18;3.58;;;2.10;;
26578;SDS011;14227;47.674;19.320;2023-06-24T14:52:44;4.32;;;1.85;;
26578;SDS011;14227;47.674;19.320;2023-06-24T14:55:09;3.25;;;1.73;;
26578;SDS011;14227;47.674;19.320;2023-06-24T14:57:35;4.30;;;1.88;;